sensor_id;sensor_type;location;lat;lon;timestamp;P1;durP1;ratioP1;P2;durP2;ratioP2
51732;SDS011;39139;53.144;6.244;2023-04-25T00:00:07;22.10;;;4.72;;
51732;SDS011;39139;53.144;6.244;2023-04-25T00:02:33;25.27;;;4.40;;
51732;SDS011;39139;53.144;6.244;2023-04-25T00:05:00;16.45;;;3.78;;
51732;SDS011;39139;53.144;6.244;2023-04-25T00:07:26;17.95;;;4.00;;
51732;SDS011;39139;53.144;6.244;2023-04-25T00:09:52;17.42;;;4.22;;
51732;SDS011;39139;53.144;6.244;2023-04-25T00:12:18;27.05;;;4.93;;
51732;SDS011;39139;53.144;6.244;2023-04-25T00:14:43;24.05;;;4.22;;
51732;SDS011;39139;53.144;6.244;2023-04-25T00:17:10;21.65;;;3.65;;
51732;SDS011;39139;53.144;6.244;2023-04-25T00:19:36;21.17;;;3.58;;
51732;SDS011;39139;53.144;6.244;2023-04-25T00:22:02;24.77;;;3.97;;
51732;SDS011;39139;53.144;6.244;2023-04-25T00:24:28;17.77;;;3.47;;
51732;SDS011;39139;53.144;6.244;2023-04-25T00:26:54;16.10;;;3.28;;
51732;SDS011;39139;53.144;6.244;2023-04-25T00:29:20;17.08;;;3.22;;
51732;SDS011;39139;53.144;6.244;2023-04-25T00:31:46;22.70;;;4.05;;
51732;SDS011;39139;53.144;6.244;2023-04-25T00:34:11;20.80;;;4.05;;
51732;SDS011;39139;53.144;6.244;2023-04-25T00:36:37;17.35;;;3.47;;
51732;SDS011;39139;53.144;6.244;2023-04-25T00:39:03;16.75;;;3.75;;
51732;SDS011;39139;53.144;6.244;2023-04-25T00:41:29;16.42;;;3.53;;
51732;SDS011;39139;53.144;6.244;2023-04-25T00:43:55;15.85;;;3.45;;
51732;SDS011;39139;53.144;6.244;2023-04-25T00:46:22;10.82;;;2.70;;
51732;SDS011;39139;53.144;6.244;2023-04-25T00:48:48;16.77;;;3.58;;
51732;SDS011;39139;53.144;6.244;2023-04-25T00:51:16;13.50;;;2.78;;
51732;SDS011;39139;53.144;6.244;2023-04-25T00:53:45;17.00;;;3.47;;
51732;SDS011;39139;53.144;6.244;2023-04-25T00:56:11;13.48;;;3.40;;
51732;SDS011;39139;53.144;6.244;2023-04-25T00:58:37;22.95;;;3.17;;
51732;SDS011;39139;53.144;6.244;2023-04-25T01:01:03;15.63;;;3.10;;
51732;SDS011;39139;53.144;6.244;2023-04-25T01:03:30;21.02;;;3.38;;
51732;SDS011;39139;53.144;6.244;2023-04-25T01:06:00;18.60;;;3.15;;
51732;SDS011;39139;53.144;6.244;2023-04-25T01:08:27;13.35;;;3.28;;
51732;SDS011;39139;53.144;6.244;2023-04-25T01:10:53;17.15;;;3.03;;
51732;SDS011;39139;53.144;6.244;2023-04-25T01:13:19;13.45;;;3.28;;
51732;SDS011;39139;53.144;6.244;2023-04-25T01:15:45;14.88;;;3.17;;
51732;SDS011;39139;53.144;6.244;2023-04-25T01:18:10;14.20;;;3.05;;
51732;SDS011;39139;53.144;6.244;2023-04-25T01:20:37;20.75;;;2.92;;
51732;SDS011;39139;53.144;6.244;2023-04-25T01:23:03;14.88;;;2.97;;
51732;SDS011;39139;53.144;6.244;2023-04-25T01:25:32;21.52;;;3.33;;
51732;SDS011;39139;53.144;6.244;2023-04-25T01:27:58;16.00;;;3.58;;
51732;SDS011;39139;53.144;6.244;2023-04-25T01:30:25;13.68;;;2.97;;
51732;SDS011;39139;53.144;6.244;2023-04-25T01:32:52;16.60;;;3.30;;
51732;SDS011;39139;53.144;6.244;2023-04-25T01:35:20;19.08;;;3.38;;
51732;SDS011;39139;53.144;6.244;2023-04-25T01:37:49;15.68;;;3.08;;
51732;SDS011;39139;53.144;6.244;2023-04-25T01:40:15;15.07;;;3.50;;
51732;SDS011;39139;53.144;6.244;2023-04-25T01:42:44;16.27;;;3.30;;
51732;SDS011;39139;53.144;6.244;2023-04-25T01:45:10;20.05;;;3.20;;
51732;SDS011;39139;53.144;6.244;2023-04-25T01:47:36;25.35;;;4.45;;
51732;SDS011;39139;53.144;6.244;2023-04-25T01:50:03;20.73;;;4.10;;
51732;SDS011;39139;53.144;6.244;2023-04-25T01:52:30;17.73;;;3.92;;
51732;SDS011;39139;53.144;6.244;2023-04-25T01:54:56;12.40;;;2.50;;
51732;SDS011;39139;53.144;6.244;2023-04-25T01:57:23;21.30;;;2.95;;
51732;SDS011;39139;53.144;6.244;2023-04-25T01:59:48;24.90;;;3.58;;
51732;SDS011;39139;53.144;6.244;2023-04-25T02:02:14;16.95;;;2.78;;
51732;SDS011;39139;53.144;6.244;2023-04-25T02:04:40;17.52;;;3.10;;
51732;SDS011;39139;53.144;6.244;2023-04-25T02:07:06;15.73;;;2.97;;
51732;SDS011;39139;53.144;6.244;2023-04-25T02:09:31;14.73;;;2.70;;
51732;SDS011;39139;53.144;6.244;2023-04-25T02:11:57;15.68;;;3.25;;
51732;SDS011;39139;53.144;6.244;2023-04-25T02:14:23;18.85;;;3.33;;
51732;SDS011;39139;53.144;6.244;2023-04-25T02:16:49;13.07;;;2.55;;
51732;SDS011;39139;53.144;6.244;2023-04-25T02:19:16;14.98;;;2.85;;
51732;SDS011;39139;53.144;6.244;2023-04-25T02:21:42;17.35;;;3.10;;
51732;SDS011;39139;53.144;6.244;2023-04-25T02:24:07;11.43;;;2.45;;
51732;SDS011;39139;53.144;6.244;2023-04-25T02:26:33;18.30;;;2.53;;
51732;SDS011;39139;53.144;6.244;2023-04-25T02:28:59;10.35;;;2.53;;
51732;SDS011;39139;53.144;6.244;2023-04-25T02:31:26;18.10;;;2.17;;
51732;SDS011;39139;53.144;6.244;2023-04-25T02:33:51;18.38;;;2.75;;
51732;SDS011;39139;53.144;6.244;2023-04-25T02:36:17;10.82;;;2.60;;
51732;SDS011;39139;53.144;6.244;2023-04-25T02:38:42;22.88;;;2.95;;
51732;SDS011;39139;53.144;6.244;2023-04-25T02:41:08;13.02;;;2.50;;
51732;SDS011;39139;53.144;6.244;2023-04-25T02:43:34;20.95;;;2.72;;
51732;SDS011;39139;53.144;6.244;2023-04-25T02:45:59;13.75;;;2.28;;
51732;SDS011;39139;53.144;6.244;2023-04-25T02:48:28;14.07;;;3.15;;
51732;SDS011;39139;53.144;6.244;2023-04-25T02:50:54;13.27;;;2.37;;
51732;SDS011;39139;53.144;6.244;2023-04-25T02:53:20;11.18;;;2.47;;
51732;SDS011;39139;53.144;6.244;2023-04-25T02:55:45;12.15;;;1.73;;
51732;SDS011;39139;53.144;6.244;2023-04-25T02:58:11;11.15;;;1.27;;
51732;SDS011;39139;53.144;6.244;2023-04-25T03:00:37;2.42;;;0.98;;
51732;SDS011;39139;53.144;6.244;2023-04-25T03:03:03;10.40;;;1.63;;
51732;SDS011;39139;53.144;6.244;2023-04-25T03:05:28;8.98;;;1.58;;
51732;SDS011;39139;53.144;6.244;2023-04-25T03:07:54;5.13;;;1.70;;
51732;SDS011;39139;53.144;6.244;2023-04-25T03:10:19;5.70;;;1.23;;
51732;SDS011;39139;53.144;6.244;2023-04-25T03:12:48;8.85;;;1.27;;
51732;SDS011;39139;53.144;6.244;2023-04-25T03:15:14;5.57;;;0.85;;
51732;SDS011;39139;53.144;6.244;2023-04-25T03:17:41;6.88;;;1.95;;
51732;SDS011;39139;53.144;6.244;2023-04-25T03:20:07;4.35;;;1.15;;
51732;SDS011;39139;53.144;6.244;2023-04-25T03:22:33;6.15;;;1.33;;
51732;SDS011;39139;53.144;6.244;2023-04-25T03:24:59;6.50;;;1.33;;
51732;SDS011;39139;53.144;6.244;2023-04-25T03:27:25;10.68;;;2.13;;
51732;SDS011;39139;53.144;6.244;2023-04-25T03:29:50;14.07;;;2.22;;
51732;SDS011;39139;53.144;6.244;2023-04-25T03:32:16;14.02;;;1.73;;
51732;SDS011;39139;53.144;6.244;2023-04-25T03:34:42;15.32;;;2.03;;
51732;SDS011;39139;53.144;6.244;2023-04-25T03:37:07;8.48;;;1.75;;
51732;SDS011;39139;53.144;6.244;2023-04-25T03:39:33;6.85;;;1.63;;
51732;SDS011;39139;53.144;6.244;2023-04-25T03:41:58;10.77;;;1.83;;
51732;SDS011;39139;53.144;6.244;2023-04-25T03:44:24;13.00;;;1.90;;
51732;SDS011;39139;53.144;6.244;2023-04-25T03:46:50;16.90;;;1.75;;
51732;SDS011;39139;53.144;6.244;2023-04-25T03:49:16;16.30;;;2.47;;
51732;SDS011;39139;53.144;6.244;2023-04-25T03:51:41;11.73;;;1.92;;
51732;SDS011;39139;53.144;6.244;2023-04-25T03:54:07;12.18;;;1.65;;
51732;SDS011;39139;53.144;6.244;2023-04-25T03:56:33;5.13;;;1.40;;
51732;SDS011;39139;53.144;6.244;2023-04-25T03:58:58;10.82;;;1.63;;
51732;SDS011;39139;53.144;6.244;2023-04-25T04:01:24;8.20;;;1.27;;
51732;SDS011;39139;53.144;6.244;2023-04-25T04:03:50;5.55;;;1.25;;
51732;SDS011;39139;53.144;6.244;2023-04-25T04:06:16;7.05;;;1.10;;
51732;SDS011;39139;53.144;6.244;2023-04-25T04:08:41;4.63;;;1.15;;
51732;SDS011;39139;53.144;6.244;2023-04-25T04:11:07;6.35;;;1.38;;
51732;SDS011;39139;53.144;6.244;2023-04-25T04:13:33;7.47;;;1.20;;
51732;SDS011;39139;53.144;6.244;2023-04-25T04:15:58;8.82;;;1.92;;
51732;SDS011;39139;53.144;6.244;2023-04-25T04:18:24;8.90;;;1.73;;
51732;SDS011;39139;53.144;6.244;2023-04-25T04:20:50;6.35;;;1.15;;
51732;SDS011;39139;53.144;6.244;2023-04-25T04:23:15;11.07;;;1.55;;
51732;SDS011;39139;53.144;6.244;2023-04-25T04:25:41;7.63;;;1.88;;
51732;SDS011;39139;53.144;6.244;2023-04-25T04:28:07;15.55;;;2.45;;
51732;SDS011;39139;53.144;6.244;2023-04-25T04:30:32;14.38;;;2.60;;
51732;SDS011;39139;53.144;6.244;2023-04-25T04:33:01;11.82;;;2.70;;
51732;SDS011;39139;53.144;6.244;2023-04-25T04:35:27;12.27;;;2.25;;
51732;SDS011;39139;53.144;6.244;2023-04-25T04:37:53;6.35;;;2.70;;
51732;SDS011;39139;53.144;6.244;2023-04-25T04:40:18;11.80;;;2.13;;
51732;SDS011;39139;53.144;6.244;2023-04-25T04:42:44;17.67;;;2.20;;
51732;SDS011;39139;53.144;6.244;2023-04-25T04:45:10;15.98;;;2.40;;
51732;SDS011;39139;53.144;6.244;2023-04-25T04:47:37;14.98;;;2.38;;
51732;SDS011;39139;53.144;6.244;2023-04-25T04:50:05;6.28;;;1.77;;
51732;SDS011;39139;53.144;6.244;2023-04-25T04:52:33;17.88;;;3.25;;
51732;SDS011;39139;53.144;6.244;2023-04-25T04:55:00;12.00;;;2.05;;
51732;SDS011;39139;53.144;6.244;2023-04-25T04:57:26;10.77;;;2.58;;
51732;SDS011;39139;53.144;6.244;2023-04-25T04:59:53;10.10;;;2.35;;
51732;SDS011;39139;53.144;6.244;2023-04-25T05:02:19;11.88;;;2.50;;
51732;SDS011;39139;53.144;6.244;2023-04-25T05:04:44;15.35;;;2.53;;
51732;SDS011;39139;53.144;6.244;2023-04-25T05:07:10;15.57;;;2.60;;
51732;SDS011;39139;53.144;6.244;2023-04-25T05:09:36;24.85;;;3.60;;
51732;SDS011;39139;53.144;6.244;2023-04-25T05:12:02;10.20;;;2.08;;
51732;SDS011;39139;53.144;6.244;2023-04-25T05:14:28;14.82;;;2.85;;
51732;SDS011;39139;53.144;6.244;2023-04-25T05:16:54;21.35;;;3.42;;
51732;SDS011;39139;53.144;6.244;2023-04-25T05:19:19;15.90;;;2.83;;
51732;SDS011;39139;53.144;6.244;2023-04-25T05:21:45;19.25;;;2.65;;
51732;SDS011;39139;53.144;6.244;2023-04-25T05:24:11;20.20;;;3.28;;
51732;SDS011;39139;53.144;6.244;2023-04-25T05:26:37;14.98;;;2.70;;
51732;SDS011;39139;53.144;6.244;2023-04-25T05:29:02;11.82;;;2.78;;
51732;SDS011;39139;53.144;6.244;2023-04-25T05:31:28;15.30;;;2.83;;
51732;SDS011;39139;53.144;6.244;2023-04-25T05:33:54;11.80;;;2.17;;
51732;SDS011;39139;53.144;6.244;2023-04-25T05:36:20;11.57;;;2.05;;
51732;SDS011;39139;53.144;6.244;2023-04-25T05:38:46;13.93;;;2.13;;
51732;SDS011;39139;53.144;6.244;2023-04-25T05:41:11;12.52;;;1.63;;
51732;SDS011;39139;53.144;6.244;2023-04-25T05:43:37;18.60;;;2.03;;
51732;SDS011;39139;53.144;6.244;2023-04-25T05:46:03;9.25;;;1.65;;
51732;SDS011;39139;53.144;6.244;2023-04-25T05:48:28;9.68;;;1.75;;
51732;SDS011;39139;53.144;6.244;2023-04-25T05:50:55;12.52;;;2.33;;
51732;SDS011;39139;53.144;6.244;2023-04-25T05:53:21;16.38;;;2.25;;
51732;SDS011;39139;53.144;6.244;2023-04-25T05:55:47;6.65;;;1.33;;
51732;SDS011;39139;53.144;6.244;2023-04-25T05:58:12;9.52;;;1.48;;
51732;SDS011;39139;53.144;6.244;2023-04-25T06:00:38;17.40;;;2.33;;
51732;SDS011;39139;53.144;6.244;2023-04-25T06:03:06;10.75;;;1.60;;
51732;SDS011;39139;53.144;6.244;2023-04-25T06:05:34;10.73;;;1.52;;
51732;SDS011;39139;53.144;6.244;2023-04-25T06:08:00;14.40;;;2.88;;
51732;SDS011;39139;53.144;6.244;2023-04-25T06:10:26;11.15;;;1.63;;
51732;SDS011;39139;53.144;6.244;2023-04-25T06:12:52;9.63;;;1.73;;
51732;SDS011;39139;53.144;6.244;2023-04-25T06:15:18;11.52;;;1.30;;
51732;SDS011;39139;53.144;6.244;2023-04-25T06:17:44;6.07;;;1.73;;
51732;SDS011;39139;53.144;6.244;2023-04-25T06:20:10;7.00;;;1.08;;
51732;SDS011;39139;53.144;6.244;2023-04-25T06:22:36;5.85;;;0.70;;
51732;SDS011;39139;53.144;6.244;2023-04-25T06:25:01;3.40;;;0.82;;
51732;SDS011;39139;53.144;6.244;2023-04-25T06:27:29;4.07;;;0.80;;
51732;SDS011;39139;53.144;6.244;2023-04-25T06:29:55;5.53;;;0.70;;
51732;SDS011;39139;53.144;6.244;2023-04-25T06:32:20;2.20;;;0.43;;
51732;SDS011;39139;53.144;6.244;2023-04-25T06:34:46;3.33;;;1.23;;
51732;SDS011;39139;53.144;6.244;2023-04-25T06:37:11;4.45;;;0.98;;
51732;SDS011;39139;53.144;6.244;2023-04-25T06:39:37;7.22;;;1.27;;
51732;SDS011;39139;53.144;6.244;2023-04-25T06:42:03;5.47;;;1.00;;
51732;SDS011;39139;53.144;6.244;2023-04-25T06:44:28;4.88;;;0.93;;
51732;SDS011;39139;53.144;6.244;2023-04-25T06:46:55;7.35;;;1.20;;
51732;SDS011;39139;53.144;6.244;2023-04-25T06:49:20;6.22;;;1.05;;
51732;SDS011;39139;53.144;6.244;2023-04-25T06:51:46;9.27;;;1.33;;
51732;SDS011;39139;53.144;6.244;2023-04-25T06:54:12;8.25;;;1.15;;
51732;SDS011;39139;53.144;6.244;2023-04-25T06:56:37;7.93;;;1.10;;
51732;SDS011;39139;53.144;6.244;2023-04-25T06:59:03;10.30;;;1.98;;
51732;SDS011;39139;53.144;6.244;2023-04-25T07:01:28;10.45;;;1.55;;
51732;SDS011;39139;53.144;6.244;2023-04-25T07:03:54;8.07;;;0.95;;
51732;SDS011;39139;53.144;6.244;2023-04-25T07:06:20;6.40;;;1.13;;
51732;SDS011;39139;53.144;6.244;2023-04-25T07:08:46;11.27;;;1.50;;
51732;SDS011;39139;53.144;6.244;2023-04-25T07:11:11;8.90;;;1.00;;
51732;SDS011;39139;53.144;6.244;2023-04-25T07:13:37;14.65;;;2.35;;
51732;SDS011;39139;53.144;6.244;2023-04-25T07:16:03;11.77;;;2.47;;
51732;SDS011;39139;53.144;6.244;2023-04-25T07:18:29;6.93;;;1.88;;
51732;SDS011;39139;53.144;6.244;2023-04-25T07:20:54;4.80;;;0.93;;
51732;SDS011;39139;53.144;6.244;2023-04-25T07:23:20;3.40;;;0.93;;
51732;SDS011;39139;53.144;6.244;2023-04-25T07:25:46;3.55;;;0.80;;
51732;SDS011;39139;53.144;6.244;2023-04-25T07:28:12;4.43;;;0.70;;
51732;SDS011;39139;53.144;6.244;2023-04-25T07:30:37;7.57;;;0.85;;
51732;SDS011;39139;53.144;6.244;2023-04-25T07:33:03;6.28;;;0.80;;
51732;SDS011;39139;53.144;6.244;2023-04-25T07:35:29;3.75;;;0.88;;
51732;SDS011;39139;53.144;6.244;2023-04-25T07:37:54;9.35;;;1.13;;
51732;SDS011;39139;53.144;6.244;2023-04-25T07:40:20;8.25;;;0.70;;
51732;SDS011;39139;53.144;6.244;2023-04-25T07:42:46;4.95;;;0.57;;
51732;SDS011;39139;53.144;6.244;2023-04-25T07:45:12;5.88;;;1.15;;
51732;SDS011;39139;53.144;6.244;2023-04-25T07:47:37;3.78;;;0.60;;
51732;SDS011;39139;53.144;6.244;2023-04-25T07:50:03;6.57;;;1.63;;
51732;SDS011;39139;53.144;6.244;2023-04-25T07:52:29;6.07;;;0.77;;
51732;SDS011;39139;53.144;6.244;2023-04-25T07:54:55;5.82;;;1.10;;
51732;SDS011;39139;53.144;6.244;2023-04-25T07:57:22;7.93;;;0.88;;
51732;SDS011;39139;53.144;6.244;2023-04-25T07:59:49;5.35;;;1.00;;
51732;SDS011;39139;53.144;6.244;2023-04-25T08:02:14;5.45;;;1.27;;
51732;SDS011;39139;53.144;6.244;2023-04-25T08:04:40;9.15;;;1.13;;
51732;SDS011;39139;53.144;6.244;2023-04-25T08:07:06;8.23;;;0.88;;
51732;SDS011;39139;53.144;6.244;2023-04-25T08:09:31;4.00;;;0.70;;
51732;SDS011;39139;53.144;6.244;2023-04-25T08:12:00;7.55;;;1.58;;
51732;SDS011;39139;53.144;6.244;2023-04-25T08:14:27;5.18;;;0.88;;
51732;SDS011;39139;53.144;6.244;2023-04-25T08:16:54;2.53;;;0.80;;
51732;SDS011;39139;53.144;6.244;2023-04-25T08:19:19;7.28;;;1.50;;
51732;SDS011;39139;53.144;6.244;2023-04-25T08:21:45;4.90;;;1.10;;
51732;SDS011;39139;53.144;6.244;2023-04-25T08:24:11;3.13;;;0.55;;
51732;SDS011;39139;53.144;6.244;2023-04-25T08:26:36;5.20;;;0.65;;
51732;SDS011;39139;53.144;6.244;2023-04-25T08:29:03;3.20;;;0.70;;
51732;SDS011;39139;53.144;6.244;2023-04-25T08:31:29;4.35;;;1.10;;
51732;SDS011;39139;53.144;6.244;2023-04-25T08:33:55;3.85;;;0.70;;
51732;SDS011;39139;53.144;6.244;2023-04-25T08:36:20;3.75;;;0.43;;
51732;SDS011;39139;53.144;6.244;2023-04-25T08:38:46;3.05;;;0.77;;
51732;SDS011;39139;53.144;6.244;2023-04-25T08:41:12;4.00;;;0.90;;
51732;SDS011;39139;53.144;6.244;2023-04-25T08:43:39;7.47;;;0.80;;
51732;SDS011;39139;53.144;6.244;2023-04-25T08:46:08;6.18;;;1.60;;
51732;SDS011;39139;53.144;6.244;2023-04-25T08:48:36;5.07;;;0.82;;
51732;SDS011;39139;53.144;6.244;2023-04-25T08:51:02;3.65;;;0.52;;
51732;SDS011;39139;53.144;6.244;2023-04-25T08:55:58;2.92;;;0.90;;
51732;SDS011;39139;53.144;6.244;2023-04-25T08:58:26;2.78;;;0.73;;
51732;SDS011;39139;53.144;6.244;2023-04-25T09:00:53;6.43;;;1.15;;
51732;SDS011;39139;53.144;6.244;2023-04-25T09:03:18;5.10;;;0.68;;
51732;SDS011;39139;53.144;6.244;2023-04-25T09:05:44;5.07;;;0.95;;
51732;SDS011;39139;53.144;6.244;2023-04-25T09:08:10;6.63;;;1.35;;
51732;SDS011;39139;53.144;6.244;2023-04-25T09:10:36;4.05;;;0.90;;
51732;SDS011;39139;53.144;6.244;2023-04-25T09:13:08;8.40;;;1.35;;
51732;SDS011;39139;53.144;6.244;2023-04-25T09:15:52;6.90;;;1.52;;
51732;SDS011;39139;53.144;6.244;2023-04-25T09:18:23;4.43;;;1.13;;
51732;SDS011;39139;53.144;6.244;2023-04-25T09:20:57;7.38;;;1.90;;
51732;SDS011;39139;53.144;6.244;2023-04-25T09:23:38;9.05;;;2.10;;
51732;SDS011;39139;53.144;6.244;2023-04-25T09:26:09;12.45;;;1.58;;
51732;SDS011;39139;53.144;6.244;2023-04-25T09:28:38;7.10;;;1.87;;
51732;SDS011;39139;53.144;6.244;2023-04-25T09:31:04;5.47;;;1.52;;
51732;SDS011;39139;53.144;6.244;2023-04-25T09:33:32;6.80;;;1.15;;
51732;SDS011;39139;53.144;6.244;2023-04-25T09:38:32;6.78;;;1.42;;
51732;SDS011;39139;53.144;6.244;2023-04-25T09:41:11;13.50;;;2.28;;
51732;SDS011;39139;53.144;6.244;2023-04-25T09:43:37;11.70;;;1.48;;
51732;SDS011;39139;53.144;6.244;2023-04-25T09:46:10;12.05;;;2.17;;
51732;SDS011;39139;53.144;6.244;2023-04-25T09:48:39;9.63;;;1.33;;
51732;SDS011;39139;53.144;6.244;2023-04-25T09:51:09;3.97;;;1.23;;
51732;SDS011;39139;53.144;6.244;2023-04-25T09:53:40;6.43;;;1.48;;
51732;SDS011;39139;53.144;6.244;2023-04-25T09:56:08;8.55;;;1.08;;
51732;SDS011;39139;53.144;6.244;2023-04-25T09:58:35;6.90;;;1.23;;
51732;SDS011;39139;53.144;6.244;2023-04-25T10:01:06;7.95;;;2.00;;
51732;SDS011;39139;53.144;6.244;2023-04-25T10:03:33;8.82;;;1.52;;
51732;SDS011;39139;53.144;6.244;2023-04-25T10:06:01;7.43;;;1.30;;
51732;SDS011;39139;53.144;6.244;2023-04-25T10:08:33;6.47;;;1.25;;
51732;SDS011;39139;53.144;6.244;2023-04-25T10:11:01;6.63;;;1.30;;
51732;SDS011;39139;53.144;6.244;2023-04-25T10:13:31;6.72;;;0.90;;
51732;SDS011;39139;53.144;6.244;2023-04-25T10:15:58;4.20;;;1.13;;
51732;SDS011;39139;53.144;6.244;2023-04-25T10:18:25;12.90;;;1.80;;
51732;SDS011;39139;53.144;6.244;2023-04-25T10:20:56;5.47;;;1.33;;
51732;SDS011;39139;53.144;6.244;2023-04-25T10:23:24;7.95;;;1.20;;
51732;SDS011;39139;53.144;6.244;2023-04-25T10:25:51;9.30;;;1.10;;
51732;SDS011;39139;53.144;6.244;2023-04-25T10:28:18;8.90;;;1.17;;
51732;SDS011;39139;53.144;6.244;2023-04-25T10:30:57;10.50;;;1.42;;
51732;SDS011;39139;53.144;6.244;2023-04-25T10:33:34;10.55;;;1.20;;
51732;SDS011;39139;53.144;6.244;2023-04-25T10:36:08;6.18;;;2.40;;
51732;SDS011;39139;53.144;6.244;2023-04-25T10:38:38;9.70;;;1.70;;
51732;SDS011;39139;53.144;6.244;2023-04-25T10:41:08;7.28;;;1.20;;
51732;SDS011;39139;53.144;6.244;2023-04-25T10:46:12;9.80;;;1.88;;
51732;SDS011;39139;53.144;6.244;2023-04-25T10:56:20;10.57;;;1.60;;
51732;SDS011;39139;53.144;6.244;2023-04-25T10:58:47;12.40;;;1.65;;
51732;SDS011;39139;53.144;6.244;2023-04-25T11:01:13;7.95;;;1.20;;
51732;SDS011;39139;53.144;6.244;2023-04-25T11:03:43;9.35;;;1.30;;
51732;SDS011;39139;53.144;6.244;2023-04-25T11:08:57;5.75;;;1.48;;
51732;SDS011;39139;53.144;6.244;2023-04-25T11:11:26;5.53;;;1.33;;
51732;SDS011;39139;53.144;6.244;2023-04-25T11:13:51;5.68;;;1.00;;
51732;SDS011;39139;53.144;6.244;2023-04-25T11:16:17;9.02;;;1.40;;
51732;SDS011;39139;53.144;6.244;2023-04-25T11:18:43;5.30;;;1.42;;
51732;SDS011;39139;53.144;6.244;2023-04-25T11:21:09;4.88;;;1.33;;
51732;SDS011;39139;53.144;6.244;2023-04-25T11:23:36;4.78;;;0.90;;
51732;SDS011;39139;53.144;6.244;2023-04-25T11:26:02;4.63;;;1.30;;
51732;SDS011;39139;53.144;6.244;2023-04-25T11:28:28;3.97;;;1.55;;
51732;SDS011;39139;53.144;6.244;2023-04-25T11:30:55;11.10;;;1.42;;
51732;SDS011;39139;53.144;6.244;2023-04-25T11:33:24;5.35;;;1.13;;
51732;SDS011;39139;53.144;6.244;2023-04-25T11:35:52;11.70;;;1.35;;
51732;SDS011;39139;53.144;6.244;2023-04-25T11:40:49;4.75;;;1.13;;
51732;SDS011;39139;53.144;6.244;2023-04-25T11:43:20;9.75;;;1.60;;
51732;SDS011;39139;53.144;6.244;2023-04-25T11:45:47;3.90;;;1.17;;
51732;SDS011;39139;53.144;6.244;2023-04-25T11:48:14;1.88;;;0.47;;
51732;SDS011;39139;53.144;6.244;2023-04-25T11:50:39;0.73;;;0.50;;
51732;SDS011;39139;53.144;6.244;2023-04-25T11:53:06;2.08;;;0.40;;
51732;SDS011;39139;53.144;6.244;2023-04-25T11:55:33;6.35;;;0.30;;
51732;SDS011;39139;53.144;6.244;2023-04-25T11:57:59;2.33;;;0.32;;
51732;SDS011;39139;53.144;6.244;2023-04-25T12:00:26;5.22;;;0.60;;
51732;SDS011;39139;53.144;6.244;2023-04-25T12:02:53;3.08;;;0.57;;
51732;SDS011;39139;53.144;6.244;2023-04-25T12:05:20;7.35;;;1.30;;
51732;SDS011;39139;53.144;6.244;2023-04-25T12:07:48;7.38;;;1.55;;
51732;SDS011;39139;53.144;6.244;2023-04-25T12:10:17;6.93;;;1.20;;
51732;SDS011;39139;53.144;6.244;2023-04-25T12:12:44;6.27;;;1.20;;
51732;SDS011;39139;53.144;6.244;2023-04-25T12:15:22;8.45;;;1.30;;
51732;SDS011;39139;53.144;6.244;2023-04-25T12:17:50;11.82;;;1.73;;
51732;SDS011;39139;53.144;6.244;2023-04-25T12:20:17;6.10;;;0.68;;
51732;SDS011;39139;53.144;6.244;2023-04-25T12:22:46;9.30;;;1.35;;
51732;SDS011;39139;53.144;6.244;2023-04-25T12:25:20;7.85;;;1.17;;
51732;SDS011;39139;53.144;6.244;2023-04-25T12:28:19;9.32;;;1.20;;
51732;SDS011;39139;53.144;6.244;2023-04-25T12:31:00;6.97;;;1.17;;
51732;SDS011;39139;53.144;6.244;2023-04-25T12:33:29;7.40;;;1.30;;
51732;SDS011;39139;53.144;6.244;2023-04-25T12:36:05;5.55;;;1.30;;
51732;SDS011;39139;53.144;6.244;2023-04-25T12:38:39;5.60;;;0.93;;
51732;SDS011;39139;53.144;6.244;2023-04-25T12:41:07;7.60;;;0.70;;
51732;SDS011;39139;53.144;6.244;2023-04-25T12:43:33;10.68;;;1.13;;
51732;SDS011;39139;53.144;6.244;2023-04-25T12:45:59;7.53;;;0.77;;
51732;SDS011;39139;53.144;6.244;2023-04-25T12:48:25;7.93;;;1.27;;
51732;SDS011;39139;53.144;6.244;2023-04-25T12:50:51;5.90;;;1.27;;
51732;SDS011;39139;53.144;6.244;2023-04-25T12:53:20;5.03;;;0.77;;
51732;SDS011;39139;53.144;6.244;2023-04-25T12:55:47;3.67;;;1.10;;
51732;SDS011;39139;53.144;6.244;2023-04-25T12:58:16;5.43;;;0.80;;
51732;SDS011;39139;53.144;6.244;2023-04-25T13:00:43;3.75;;;1.02;;
51732;SDS011;39139;53.144;6.244;2023-04-25T13:03:09;5.22;;;0.82;;
51732;SDS011;39139;53.144;6.244;2023-04-25T13:05:38;7.47;;;1.38;;
51732;SDS011;39139;53.144;6.244;2023-04-25T13:08:04;7.47;;;1.33;;
51732;SDS011;39139;53.144;6.244;2023-04-25T13:10:30;7.43;;;1.73;;
51732;SDS011;39139;53.144;6.244;2023-04-25T13:12:56;4.85;;;0.77;;
51732;SDS011;39139;53.144;6.244;2023-04-25T13:15:22;7.13;;;1.10;;
51732;SDS011;39139;53.144;6.244;2023-04-25T13:17:48;7.20;;;1.60;;
51732;SDS011;39139;53.144;6.244;2023-04-25T13:20:14;9.27;;;1.73;;
51732;SDS011;39139;53.144;6.244;2023-04-25T13:22:40;8.77;;;1.52;;
51732;SDS011;39139;53.144;6.244;2023-04-25T13:25:07;14.98;;;1.60;;
51732;SDS011;39139;53.144;6.244;2023-04-25T13:27:33;7.25;;;1.58;;
51732;SDS011;39139;53.144;6.244;2023-04-25T13:30:01;8.13;;;1.23;;
51732;SDS011;39139;53.144;6.244;2023-04-25T13:32:32;6.72;;;1.13;;
51732;SDS011;39139;53.144;6.244;2023-04-25T13:35:05;8.07;;;1.13;;
51732;SDS011;39139;53.144;6.244;2023-04-25T13:37:35;3.97;;;1.13;;
51732;SDS011;39139;53.144;6.244;2023-04-25T13:40:02;5.18;;;1.08;;
51732;SDS011;39139;53.144;6.244;2023-04-25T13:42:31;7.47;;;1.13;;
51732;SDS011;39139;53.144;6.244;2023-04-25T13:44:57;6.78;;;1.08;;
51732;SDS011;39139;53.144;6.244;2023-04-25T13:47:23;10.23;;;1.02;;
51732;SDS011;39139;53.144;6.244;2023-04-25T13:49:49;5.35;;;1.10;;
51732;SDS011;39139;53.144;6.244;2023-04-25T13:52:15;6.63;;;1.30;;
51732;SDS011;39139;53.144;6.244;2023-04-25T13:54:41;9.45;;;1.13;;
51732;SDS011;39139;53.144;6.244;2023-04-25T13:57:06;9.05;;;1.13;;
51732;SDS011;39139;53.144;6.244;2023-04-25T13:59:32;6.22;;;1.65;;
51732;SDS011;39139;53.144;6.244;2023-04-25T14:01:58;7.03;;;1.30;;
51732;SDS011;39139;53.144;6.244;2023-04-25T14:04:24;8.23;;;1.60;;
51732;SDS011;39139;53.144;6.244;2023-04-25T14:06:50;6.05;;;1.35;;
51732;SDS011;39139;53.144;6.244;2023-04-25T14:09:16;8.57;;;1.40;;
51732;SDS011;39139;53.144;6.244;2023-04-25T14:11:42;8.55;;;1.50;;
51732;SDS011;39139;53.144;6.244;2023-04-25T14:14:08;9.48;;;1.52;;
51732;SDS011;39139;53.144;6.244;2023-04-25T14:16:34;7.78;;;1.48;;
51732;SDS011;39139;53.144;6.244;2023-04-25T14:19:00;6.47;;;2.35;;
51732;SDS011;39139;53.144;6.244;2023-04-25T14:21:26;7.22;;;0.43;;
51732;SDS011;39139;53.144;6.244;2023-04-25T14:23:53;1.20;;;0.50;;
51732;SDS011;39139;53.144;6.244;2023-04-25T14:26:19;2.35;;;0.40;;
51732;SDS011;39139;53.144;6.244;2023-04-25T14:28:44;6.68;;;1.42;;
51732;SDS011;39139;53.144;6.244;2023-04-25T14:31:10;3.80;;;0.60;;
51732;SDS011;39139;53.144;6.244;2023-04-25T14:33:36;6.68;;;0.88;;
51732;SDS011;39139;53.144;6.244;2023-04-25T14:36:04;2.97;;;0.80;;
51732;SDS011;39139;53.144;6.244;2023-04-25T14:38:30;5.78;;;1.35;;
51732;SDS011;39139;53.144;6.244;2023-04-25T14:40:56;5.15;;;1.13;;
51732;SDS011;39139;53.144;6.244;2023-04-25T14:43:22;6.65;;;1.70;;
51732;SDS011;39139;53.144;6.244;2023-04-25T14:45:47;12.50;;;1.40;;
51732;SDS011;39139;53.144;6.244;2023-04-25T14:48:13;10.43;;;1.73;;
51732;SDS011;39139;53.144;6.244;2023-04-25T14:50:39;5.00;;;1.23;;
51732;SDS011;39139;53.144;6.244;2023-04-25T14:53:04;8.32;;;1.63;;
51732;SDS011;39139;53.144;6.244;2023-04-25T14:55:30;7.53;;;1.58;;
51732;SDS011;39139;53.144;6.244;2023-04-25T14:57:56;8.23;;;1.40;;
51732;SDS011;39139;53.144;6.244;2023-04-25T15:00:22;6.55;;;1.40;;